sensor_id;sensor_type;location;lat;lon;timestamp;pressure;altitude;pressure_sealevel;temperature;humidity
16100;BME280;8154;50.830;12.082;2022-09-17T00:01:16;98526.19;;;22.25;37.71
16100;BME280;8154;50.830;12.082;2022-09-17T00:04:01;98531.72;;;22.23;37.87
16100;BME280;8154;50.830;12.082;2022-09-17T00:06:56;98523.97;;;22.22;38.02
16100;BME280;8154;50.830;12.082;2022-09-17T00:09:42;98528.66;;;22.26;37.92
16100;BME280;8154;50.830;12.082;2022-09-17T00:16:33;98531.09;;;22.28;37.90
16100;BME280;8154;50.830;12.082;2022-09-17T00:19:43;98531.94;;;22.28;37.96
16100;BME280;8154;50.830;12.082;2022-09-17T00:22:33;98530.09;;;22.29;37.85
16100;BME280;8154;50.830;12.082;2022-09-17T00:25:24;98531.53;;;22.25;37.92
16100;BME280;8154;50.830;12.082;2022-09-17T00:28:51;98538.50;;;22.19;37.99
16100;BME280;8154;50.830;12.082;2022-09-17T00:31:52;98545.47;;;22.20;37.90
16100;BME280;8154;50.830;12.082;2022-09-17T00:34:42;98542.78;;;22.20;37.88
16100;BME280;8154;50.830;12.082;2022-09-17T00:37:59;98541.53;;;22.29;37.90
16100;BME280;8154;50.830;12.082;2022-09-17T00:40:44;98546.84;;;22.29;37.59
16100;BME280;8154;50.830;12.082;2022-09-17T00:43:50;98537.25;;;22.28;37.92
16100;BME280;8154;50.830;12.082;2022-09-17T00:46:39;98545.66;;;22.25;37.86
16100;BME280;8154;50.830;12.082;2022-09-17T00:49:51;98547.91;;;22.22;37.99
16100;BME280;8154;50.830;12.082;2022-09-17T00:53:13;98539.72;;;22.23;38.01
16100;BME280;8154;50.830;12.082;2022-09-17T00:56:10;98544.81;;;22.25;38.02
16100;BME280;8154;50.830;12.082;2022-09-17T01:03:04;98557.94;;;22.26;37.96
16100;BME280;8154;50.830;12.082;2022-09-17T01:34:12;98554.25;;;22.27;37.97
16100;BME280;8154;50.830;12.082;2022-09-17T01:37:19;98554.03;;;22.29;37.90
16100;BME280;8154;50.830;12.082;2022-09-17T01:40:20;98556.72;;;22.29;38.01
16100;BME280;8154;50.830;12.082;2022-09-17T01:43:27;98568.16;;;22.29;38.10
16100;BME280;8154;50.830;12.082;2022-09-17T01:53:25;98565.53;;;22.23;38.28
16100;BME280;8154;50.830;12.082;2022-09-17T01:57:00;98562.88;;;22.23;38.11
16100;BME280;8154;50.830;12.082;2022-09-17T02:00:00;98561.41;;;22.27;38.15
16100;BME280;8154;50.830;12.082;2022-09-17T02:06:57;98564.28;;;22.25;38.10
16100;BME280;8154;50.830;12.082;2022-09-17T02:09:54;98560.22;;;22.23;38.20
16100;BME280;8154;50.830;12.082;2022-09-17T02:12:50;98564.72;;;22.22;38.29
16100;BME280;8154;50.830;12.082;2022-09-17T02:15:40;98561.00;;;22.23;38.31
16100;BME280;8154;50.830;12.082;2022-09-17T02:18:33;98561.41;;;22.27;38.22
16100;BME280;8154;50.830;12.082;2022-09-17T02:21:30;98566.31;;;22.30;38.22
16100;BME280;8154;50.830;12.082;2022-09-17T02:24:36;98561.81;;;22.30;38.12
16100;BME280;8154;50.830;12.082;2022-09-17T02:27:39;98552.41;;;22.28;38.45
16100;BME280;8154;50.830;12.082;2022-09-17T02:30:34;98556.72;;;22.29;38.21
16100;BME280;8154;50.830;12.082;2022-09-17T02:33:19;98560.59;;;22.26;38.19
16100;BME280;8154;50.830;12.082;2022-09-17T02:36:05;98558.13;;;22.31;38.22
16100;BME280;8154;50.830;12.082;2022-09-17T02:39:00;98557.91;;;22.33;38.25
16100;BME280;8154;50.830;12.082;2022-09-17T02:45:00;98555.69;;;22.23;38.43
16100;BME280;8154;50.830;12.082;2022-09-17T02:54:26;98552.59;;;22.26;38.46
16100;BME280;8154;50.830;12.082;2022-09-17T02:57:26;98553.22;;;22.22;38.64
16100;BME280;8154;50.830;12.082;2022-09-17T03:00:19;98549.34;;;22.24;38.60
16100;BME280;8154;50.830;12.082;2022-09-17T03:03:38;98553.63;;;22.25;38.70
16100;BME280;8154;50.830;12.082;2022-09-17T03:06:28;98551.81;;;22.26;38.47
16100;BME280;8154;50.830;12.082;2022-09-17T03:09:14;98539.28;;;22.26;38.59
16100;BME280;8154;50.830;12.082;2022-09-17T03:12:27;98538.28;;;22.27;38.58
16100;BME280;8154;50.830;12.082;2022-09-17T03:15:11;98540.94;;;22.27;38.58
16100;BME280;8154;50.830;12.082;2022-09-17T03:17:56;98541.38;;;22.24;38.51
16100;BME280;8154;50.830;12.082;2022-09-17T03:20:41;98543.00;;;22.25;38.57
16100;BME280;8154;50.830;12.082;2022-09-17T03:23:34;98551.81;;;22.26;38.44
16100;BME280;8154;50.830;12.082;2022-09-17T03:26:19;98554.69;;;22.24;38.62
16100;BME280;8154;50.830;12.082;2022-09-17T03:29:09;98544.44;;;22.21;38.88
16100;BME280;8154;50.830;12.082;2022-09-17T03:32:05;98554.91;;;22.16;38.91
16100;BME280;8154;50.830;12.082;2022-09-17T03:34:50;98553.03;;;22.17;38.88
16100;BME280;8154;50.830;12.082;2022-09-17T03:37:34;98549.16;;;22.19;38.88
16100;BME280;8154;50.830;12.082;2022-09-17T03:40:18;98553.84;;;22.24;38.78
16100;BME280;8154;50.830;12.082;2022-09-17T03:43:05;98553.63;;;22.25;38.82
16100;BME280;8154;50.830;12.082;2022-09-17T03:45:51;98557.13;;;22.26;38.82
16100;BME280;8154;50.830;12.082;2022-09-17T03:48:38;98558.75;;;22.27;38.79
16100;BME280;8154;50.830;12.082;2022-09-17T03:51:26;98556.91;;;22.27;38.81
16100;BME280;8154;50.830;12.082;2022-09-17T03:54:11;98544.41;;;22.28;38.71
16100;BME280;8154;50.830;12.082;2022-09-17T03:56:58;98552.59;;;22.26;38.90
16100;BME280;8154;50.830;12.082;2022-09-17T03:59:42;98549.78;;;22.21;39.04
16100;BME280;8154;50.830;12.082;2022-09-17T04:02:31;98546.91;;;22.23;39.05
16100;BME280;8154;50.830;12.082;2022-09-17T04:05:15;98550.16;;;22.25;39.12
16100;BME280;8154;50.830;12.082;2022-09-17T04:08:00;98550.97;;;22.25;38.80
16100;BME280;8154;50.830;12.082;2022-09-17T04:10:46;98558.97;;;22.19;39.08
16100;BME280;8154;50.830;12.082;2022-09-17T04:13:31;98555.91;;;22.15;39.24
16100;BME280;8154;50.830;12.082;2022-09-17T04:16:17;98553.25;;;22.15;39.29
16100;BME280;8154;50.830;12.082;2022-09-17T04:22:50;98558.56;;;22.15;39.34
16100;BME280;8154;50.830;12.082;2022-09-17T04:29:26;98563.09;;;22.21;39.40
16100;BME280;8154;50.830;12.082;2022-09-17T04:32:18;98567.16;;;22.24;39.27
16100;BME280;8154;50.830;12.082;2022-09-17T04:35:03;98565.53;;;22.23;39.42
16100;BME280;8154;50.830;12.082;2022-09-17T04:37:59;98561.84;;;22.24;39.30
16100;BME280;8154;50.830;12.082;2022-09-17T04:40:47;98561.84;;;22.24;39.46
16100;BME280;8154;50.830;12.082;2022-09-17T04:43:35;98560.59;;;22.26;39.32
16100;BME280;8154;50.830;12.082;2022-09-17T04:46:22;98560.22;;;22.23;39.49
16100;BME280;8154;50.830;12.082;2022-09-17T04:49:09;98566.75;;;22.20;39.46
16100;BME280;8154;50.830;12.082;2022-09-17T04:51:55;98569.41;;;22.20;39.40
16100;BME280;8154;50.830;12.082;2022-09-17T04:54:42;98568.78;;;22.18;39.58
16100;BME280;8154;50.830;12.082;2022-09-17T04:57:27;98562.88;;;22.16;39.59
16100;BME280;8154;50.830;12.082;2022-09-17T05:00:13;98568.78;;;22.18;39.67
16100;BME280;8154;50.830;12.082;2022-09-17T05:02:58;98565.34;;;22.18;39.71
16100;BME280;8154;50.830;12.082;2022-09-17T05:05:44;98570.44;;;22.19;39.78
16100;BME280;8154;50.830;12.082;2022-09-17T05:08:29;98568.41;;;22.21;39.79
16100;BME280;8154;50.830;12.082;2022-09-17T05:11:13;98570.44;;;22.19;39.90
16100;BME280;8154;50.830;12.082;2022-09-17T05:13:59;98573.94;;;22.20;39.73
16100;BME280;8154;50.830;12.082;2022-09-17T05:16:48;98580.69;;;22.22;39.76
16100;BME280;8154;50.830;12.082;2022-09-17T05:19:37;98582.31;;;22.23;39.63
16100;BME280;8154;50.830;12.082;2022-09-17T05:22:23;98588.44;;;22.24;39.67
16100;BME280;8154;50.830;12.082;2022-09-17T05:25:13;98589.88;;;22.26;39.69
16100;BME280;8154;50.830;12.082;2022-09-17T05:27:59;98588.03;;;22.27;39.62
16100;BME280;8154;50.830;12.082;2022-09-17T05:30:45;98590.06;;;22.25;39.58
16100;BME280;8154;50.830;12.082;2022-09-17T05:33:31;98589.28;;;22.24;39.71
16100;BME280;8154;50.830;12.082;2022-09-17T05:36:16;98593.97;;;22.22;39.72
16100;BME280;8154;50.830;12.082;2022-09-17T05:39:04;98600.34;;;22.21;39.66
16100;BME280;8154;50.830;12.082;2022-09-17T05:41:54;98596.44;;;22.24;39.69
16100;BME280;8154;50.830;12.082;2022-09-17T05:44:42;98606.66;;;22.27;39.71
16100;BME280;8154;50.830;12.082;2022-09-17T05:47:27;98605.63;;;22.28;39.43
16100;BME280;8154;50.830;12.082;2022-09-17T05:50:12;98602.19;;;22.21;39.67
16100;BME280;8154;50.830;12.082;2022-09-17T05:53:10;98601.56;;;22.25;39.92
16100;BME280;8154;50.830;12.082;2022-09-17T05:55:57;98598.28;;;22.23;39.85
16100;BME280;8154;50.830;12.082;2022-09-17T05:58:55;98599.09;;;22.24;39.77
16100;BME280;8154;50.830;12.082;2022-09-17T06:01:48;98598.47;;;22.22;39.82
16100;BME280;8154;50.830;12.082;2022-09-17T06:04:42;98608.72;;;22.25;39.72
16100;BME280;8154;50.830;12.082;2022-09-17T06:07:30;98609.31;;;22.27;39.85
16100;BME280;8154;50.830;12.082;2022-09-17T06:14:04;98622.63;;;22.27;39.66
16100;BME280;8154;50.830;12.082;2022-09-17T06:16:50;98616.28;;;22.28;39.66
16100;BME280;8154;50.830;12.082;2022-09-17T06:19:36;98614.22;;;22.30;39.77
16100;BME280;8154;50.830;12.082;2022-09-17T06:22:24;98623.66;;;22.26;39.89
16100;BME280;8154;50.830;12.082;2022-09-17T06:25:10;98629.81;;;22.20;39.95
16100;BME280;8154;50.830;12.082;2022-09-17T06:28:04;98621.22;;;22.18;40.05
16100;BME280;8154;50.830;12.082;2022-09-17T06:30:49;98629.63;;;22.15;40.13
16100;BME280;8154;50.830;12.082;2022-09-17T06:33:46;98624.28;;;22.21;39.99
16100;BME280;8154;50.830;12.082;2022-09-17T06:36:39;98634.72;;;22.23;40.13
16100;BME280;8154;50.830;12.082;2022-09-17T06:39:24;98621.00;;;22.19;39.96
16100;BME280;8154;50.830;12.082;2022-09-17T06:42:14;98626.34;;;22.19;40.11
16100;BME280;8154;50.830;12.082;2022-09-17T06:45:04;98617.53;;;22.19;40.27
16100;BME280;8154;50.830;12.082;2022-09-17T06:48:07;98619.56;;;22.23;40.16
16100;BME280;8154;50.830;12.082;2022-09-17T06:51:00;98626.97;;;22.21;40.14
16100;BME280;8154;50.830;12.082;2022-09-17T06:53:49;98616.31;;;22.21;40.04
16100;BME280;8154;50.830;12.082;2022-09-17T06:56:42;98624.09;;;22.23;40.19
16100;BME280;8154;50.830;12.082;2022-09-17T06:59:38;98621.63;;;22.21;40.07
16100;BME280;8154;50.830;12.082;2022-09-17T07:02:51;98634.72;;;22.23;40.33
16100;BME280;8154;50.830;12.082;2022-09-17T07:05:47;98616.69;;;22.25;40.15
16100;BME280;8154;50.830;12.082;2022-09-17T07:08:33;98630.22;;;22.23;40.16
16100;BME280;8154;50.830;12.082;2022-09-17T07:11:19;98630.41;;;22.22;40.33
16100;BME280;8154;50.830;12.082;2022-09-17T07:14:09;98635.94;;;22.20;40.32
16100;BME280;8154;50.830;12.082;2022-09-17T07:16:59;98634.13;;;22.21;40.33
16100;BME280;8154;50.830;12.082;2022-09-17T07:19:53;98638.59;;;22.20;40.26
16100;BME280;8154;50.830;12.082;2022-09-17T07:22:39;98637.81;;;22.20;40.17
16100;BME280;8154;50.830;12.082;2022-09-17T07:25:30;98636.16;;;22.19;40.42
16100;BME280;8154;50.830;12.082;2022-09-17T07:28:26;98644.34;;;22.24;40.37
16100;BME280;8154;50.830;12.082;2022-09-17T07:31:16;98660.91;;;22.32;40.65
16100;BME280;8154;50.830;12.082;2022-09-17T07:34:00;98647.78;;;22.44;40.21
16100;BME280;8154;50.830;12.082;2022-09-17T07:36:45;98640.81;;;22.49;40.06
16100;BME280;8154;50.830;12.082;2022-09-17T07:39:30;98644.91;;;22.45;40.13
16100;BME280;8154;50.830;12.082;2022-09-17T07:42:15;98644.94;;;22.39;40.23
16100;BME280;8154;50.830;12.082;2022-09-17T07:45:00;98655.38;;;22.40;40.26
16100;BME280;8154;50.830;12.082;2022-09-17T07:47:45;98657.63;;;22.43;40.49
16100;BME280;8154;50.830;12.082;2022-09-17T07:50:30;98657.00;;;22.48;40.42
16100;BME280;8154;50.830;12.082;2022-09-17T07:53:19;98670.31;;;22.54;40.29
16100;BME280;8154;50.830;12.082;2022-09-17T07:56:19;98654.34;;;22.61;40.00
16100;BME280;8154;50.830;12.082;2022-09-17T07:59:05;98663.75;;;22.63;39.88
16100;BME280;8154;50.830;12.082;2022-09-17T08:01:49;98662.69;;;22.71;39.90
16100;BME280;8154;50.830;12.082;2022-09-17T08:04:34;98655.75;;;22.70;39.88
16100;BME280;8154;50.830;12.082;2022-09-17T08:07:25;98679.09;;;22.68;39.81
16100;BME280;8154;50.830;12.082;2022-09-17T08:10:20;98681.81;;;22.61;39.87
16100;BME280;8154;50.830;12.082;2022-09-17T08:13:05;98690.78;;;22.60;39.91
16100;BME280;8154;50.830;12.082;2022-09-17T08:15:50;98688.56;;;22.57;40.11
16100;BME280;8154;50.830;12.082;2022-09-17T08:18:44;98687.53;;;22.58;39.90
16100;BME280;8154;50.830;12.082;2022-09-17T08:21:35;98691.00;;;22.59;39.89
16100;BME280;8154;50.830;12.082;2022-09-17T08:24:20;98687.72;;;22.63;39.83
16100;BME280;8154;50.830;12.082;2022-09-17T08:27:05;98680.56;;;22.64;39.73
16100;BME280;8154;50.830;12.082;2022-09-17T08:30:00;98683.44;;;22.62;39.81
16100;BME280;8154;50.830;12.082;2022-09-17T08:32:47;98693.25;;;22.62;39.66
16100;BME280;8154;50.830;12.082;2022-09-17T08:35:32;98693.47;;;22.60;39.65
16100;BME280;8154;50.830;12.082;2022-09-17T08:38:26;98707.19;;;22.57;39.70
16100;BME280;8154;50.830;12.082;2022-09-17T08:41:31;98696.34;;;22.59;39.73
16100;BME280;8154;50.830;12.082;2022-09-17T08:44:31;98700.25;;;22.56;39.59
16100;BME280;8154;50.830;12.082;2022-09-17T08:47:36;98711.31;;;22.53;39.71
16100;BME280;8154;50.830;12.082;2022-09-17T08:50:33;98717.00;;;22.50;39.72
16100;BME280;8154;50.830;12.082;2022-09-17T08:56:44;98733.81;;;22.44;39.87
16100;BME280;8154;50.830;12.082;2022-09-17T09:00:02;98732.78;;;22.45;39.81
16100;BME280;8154;50.830;12.082;2022-09-17T09:07:03;98740.34;;;22.42;39.94
16100;BME280;8154;50.830;12.082;2022-09-17T09:10:15;98743.00;;;22.35;39.88
16100;BME280;8154;50.830;12.082;2022-09-17T09:13:09;98742.00;;;22.36;39.78
16100;BME280;8154;50.830;12.082;2022-09-17T09:16:02;98750.78;;;22.37;39.56
16100;BME280;8154;50.830;12.082;2022-09-17T09:18:53;98740.56;;;22.34;39.53
16100;BME280;8154;50.830;12.082;2022-09-17T09:32:45;98754.28;;;22.37;39.07
16100;BME280;8154;50.830;12.082;2022-09-17T09:35:17;98764.94;;;22.31;39.13
16100;BME280;8154;50.830;12.082;2022-09-17T09:38:27;98759.41;;;22.32;39.07
16100;BME280;8154;50.830;12.082;2022-09-17T09:41:30;98752.66;;;22.30;39.27
16100;BME280;8154;50.830;12.082;2022-09-17T09:44:16;98759.63;;;22.24;39.23
16100;BME280;8154;50.830;12.082;2022-09-17T09:59:39;98771.06;;;22.25;39.54
16100;BME280;8154;50.830;12.082;2022-09-17T10:02:27;98764.53;;;22.27;39.36
16100;BME280;8154;50.830;12.082;2022-09-17T10:05:12;98774.34;;;22.27;39.49
16100;BME280;8154;50.830;12.082;2022-09-17T10:08:11;98779.47;;;22.28;39.55
16100;BME280;8154;50.830;12.082;2022-09-17T10:11:28;98771.50;;;22.28;39.55
16100;BME280;8154;50.830;12.082;2022-09-17T10:14:26;98768.19;;;22.26;39.64
16100;BME280;8154;50.830;12.082;2022-09-17T10:20:16;98759.22;;;22.21;39.70
16100;BME280;8154;50.830;12.082;2022-09-17T10:23:05;98752.66;;;22.23;39.81
16100;BME280;8154;50.830;12.082;2022-09-17T10:26:26;98738.53;;;22.23;39.63
16100;BME280;8154;50.830;12.082;2022-09-17T10:29:29;98742.41;;;22.27;39.50
16100;BME280;8154;50.830;12.082;2022-09-17T10:32:15;98741.78;;;22.31;39.47
16100;BME280;8154;50.830;12.082;2022-09-17T10:35:26;98738.72;;;22.28;39.79
16100;BME280;8154;50.830;12.082;2022-09-17T10:49:38;98749.38;;;22.28;39.69
16100;BME280;8154;50.830;12.082;2022-09-17T10:52:53;98747.53;;;22.22;39.72
16100;BME280;8154;50.830;12.082;2022-09-17T11:08:05;98741.78;;;22.18;39.69
16100;BME280;8154;50.830;12.082;2022-09-17T11:11:25;98731.97;;;22.19;39.66
16100;BME280;8154;50.830;12.082;2022-09-17T11:20:30;98731.34;;;22.23;39.69
16100;BME280;8154;50.830;12.082;2022-09-17T11:33:15;98707.59;;;22.28;39.80
16100;BME280;8154;50.830;12.082;2022-09-17T11:36:13;98706.78;;;22.28;39.68
16100;BME280;8154;50.830;12.082;2022-09-17T11:39:20;98692.84;;;22.32;39.67
16100;BME280;8154;50.830;12.082;2022-09-17T11:42:14;98701.25;;;22.36;39.52
16100;BME280;8154;50.830;12.082;2022-09-17T11:45:23;98700.63;;;22.40;39.54
16100;BME280;8154;50.830;12.082;2022-09-17T11:48:19;98700.03;;;22.38;39.56
16100;BME280;8154;50.830;12.082;2022-09-17T11:51:26;98697.97;;;22.40;39.42
16100;BME280;8154;50.830;12.082;2022-09-17T11:54:27;98702.28;;;22.41;39.34
16100;BME280;8154;50.830;12.082;2022-09-17T11:57:16;98697.16;;;22.33;39.28
16100;BME280;8154;50.830;12.082;2022-09-17T12:00:15;98693.25;;;22.36;39.13
16100;BME280;8154;50.830;12.082;2022-09-17T12:03:12;98685.91;;;22.31;39.15
16100;BME280;8154;50.830;12.082;2022-09-17T12:06:08;98683.66;;;22.35;39.07
16100;BME280;8154;50.830;12.082;2022-09-17T12:09:02;98682.19;;;22.32;38.99
16100;BME280;8154;50.830;12.082;2022-09-17T12:12:14;98686.94;;;22.30;39.05
16100;BME280;8154;50.830;12.082;2022-09-17T12:15:05;98668.31;;;22.30;38.91
16100;BME280;8154;50.830;12.082;2022-09-17T12:18:36;98673.22;;;22.27;39.01
16100;BME280;8154;50.830;12.082;2022-09-17T12:21:32;98667.47;;;22.23;39.01
16100;BME280;8154;50.830;12.082;2022-09-17T12:24:25;98675.66;;;22.22;39.03
16100;BME280;8154;50.830;12.082;2022-09-17T12:30:20;98680.19;;;22.15;39.04
16100;BME280;8154;50.830;12.082;2022-09-17T12:41:50;98668.28;;;22.17;38.84
16100;BME280;8154;50.830;12.082;2022-09-17T12:45:15;98672.59;;;22.18;38.50
16100;BME280;8154;50.830;12.082;2022-09-17T12:48:31;98660.53;;;22.22;38.49
16100;BME280;8154;50.830;12.082;2022-09-17T12:57:44;98645.75;;;22.26;38.26
16100;BME280;8154;50.830;12.082;2022-09-17T13:00:45;98656.63;;;22.25;38.13
16100;BME280;8154;50.830;12.082;2022-09-17T13:03:36;98659.69;;;22.22;38.29
16100;BME280;8154;50.830;12.082;2022-09-17T13:12:42;98657.25;;;22.27;37.98
16100;BME280;8154;50.830;12.082;2022-09-17T13:22:02;98654.78;;;22.32;37.68
16100;BME280;8154;50.830;12.082;2022-09-17T13:25:04;98662.56;;;22.33;37.85
16100;BME280;8154;50.830;12.082;2022-09-17T13:27:50;98678.91;;;22.37;37.71
16100;BME280;8154;50.830;12.082;2022-09-17T13:31:02;98679.34;;;22.34;38.05
16100;BME280;8154;50.830;12.082;2022-09-17T13:33:50;98666.22;;;22.32;37.93
16100;BME280;8154;50.830;12.082;2022-09-17T13:36:38;98676.66;;;22.34;38.00
16100;BME280;8154;50.830;12.082;2022-09-17T13:39:46;98665.00;;;22.28;38.15
16100;BME280;8154;50.830;12.082;2022-09-17T13:42:46;98669.53;;;22.21;38.43
16100;BME280;8154;50.830;12.082;2022-09-17T13:45:33;98663.38;;;22.21;38.40
16100;BME280;8154;50.830;12.082;2022-09-17T13:48:20;98665.84;;;22.22;38.44
16100;BME280;8154;50.830;12.082;2022-09-17T13:54:17;98650.50;;;22.18;38.53
16100;BME280;8154;50.830;12.082;2022-09-17T13:57:17;98655.41;;;22.21;38.46
16100;BME280;8154;50.830;12.082;2022-09-17T14:00:02;98649.25;;;22.20;38.40
16100;BME280;8154;50.830;12.082;2022-09-17T14:02:47;98643.13;;;22.20;38.30
16100;BME280;8154;50.830;12.082;2022-09-17T14:05:33;98654.56;;;22.20;38.47
16100;BME280;8154;50.830;12.082;2022-09-17T14:08:27;98641.28;;;22.20;38.12
16100;BME280;8154;50.830;12.082;2022-09-17T14:16:52;98653.38;;;22.23;37.99
16100;BME280;8154;50.830;12.082;2022-09-17T14:22:25;98664.59;;;22.25;37.72
16100;BME280;8154;50.830;12.082;2022-09-17T14:25:31;98670.34;;;22.28;37.87
16100;BME280;8154;50.830;12.082;2022-09-17T14:28:46;98664.81;;;22.23;37.86
16100;BME280;8154;50.830;12.082;2022-09-17T14:31:37;98662.16;;;22.23;38.02
16100;BME280;8154;50.830;12.082;2022-09-17T14:34:24;98670.34;;;22.22;37.98
16100;BME280;8154;50.830;12.082;2022-09-17T14:37:13;98655.00;;;22.17;37.93
16100;BME280;8154;50.830;12.082;2022-09-17T14:40:00;98656.03;;;22.16;37.94
16100;BME280;8154;50.830;12.082;2022-09-17T14:42:45;98657.66;;;22.17;37.63
16100;BME280;8154;50.830;12.082;2022-09-17T14:45:38;98663.38;;;22.14;37.72
16100;BME280;8154;50.830;12.082;2022-09-17T14:48:32;98660.94;;;22.13;37.80
16100;BME280;8154;50.830;12.082;2022-09-17T15:02:37;98648.44;;;22.07;38.18
16100;BME280;8154;50.830;12.082;2022-09-17T15:11:08;98638.81;;;22.12;37.84
16100;BME280;8154;50.830;12.082;2022-09-17T15:13:56;98648.88;;;22.10;37.72
16100;BME280;8154;50.830;12.082;2022-09-17T15:16:51;98650.91;;;22.08;37.76
16100;BME280;8154;50.830;12.082;2022-09-17T15:19:39;98650.28;;;22.06;37.65
16100;BME280;8154;50.830;12.082;2022-09-17T15:22:28;98657.69;;;22.04;37.66
16100;BME280;8154;50.830;12.082;2022-09-17T15:25:24;98664.00;;;22.03;37.68
16100;BME280;8154;50.830;12.082;2022-09-17T15:28:28;98661.13;;;22.05;37.46
16100;BME280;8154;50.830;12.082;2022-09-17T15:31:19;98664.22;;;22.02;37.51
16100;BME280;8154;50.830;12.082;2022-09-17T15:34:03;98669.31;;;22.03;37.26
16100;BME280;8154;50.830;12.082;2022-09-17T15:40:15;98679.56;;;22.06;36.96
16100;BME280;8154;50.830;12.082;2022-09-17T15:46:26;98685.91;;;22.12;36.86
16100;BME280;8154;50.830;12.082;2022-09-17T15:49:30;98670.75;;;22.12;36.85
16100;BME280;8154;50.830;12.082;2022-09-17T15:52:33;98672.41;;;22.13;36.85
16100;BME280;8154;50.830;12.082;2022-09-17T15:59:28;98718.25;;;22.15;36.88
16100;BME280;8154;50.830;12.082;2022-09-17T16:02:27;98717.81;;;22.18;36.99
16100;BME280;8154;50.830;12.082;2022-09-17T16:08:16;98722.56;;;22.23;37.04
16100;BME280;8154;50.830;12.082;2022-09-17T16:11:06;98712.91;;;22.15;37.30
16100;BME280;8154;50.830;12.082;2022-09-17T16:13:53;98703.50;;;22.13;37.38
16100;BME280;8154;50.830;12.082;2022-09-17T16:16:46;98707.00;;;22.13;37.48
16100;BME280;8154;50.830;12.082;2022-09-17T16:19:37;98704.34;;;22.13;37.31
16100;BME280;8154;50.830;12.082;2022-09-17T16:22:26;98695.31;;;22.14;37.49
16100;BME280;8154;50.830;12.082;2022-09-17T16:25:26;98688.16;;;22.15;37.54
16100;BME280;8154;50.830;12.082;2022-09-17T16:28:16;98689.38;;;22.19;37.39
16100;BME280;8154;50.830;12.082;2022-09-17T16:31:01;98685.88;;;22.18;37.44
16100;BME280;8154;50.830;12.082;2022-09-17T16:33:45;98697.78;;;22.16;37.40
16100;BME280;8154;50.830;12.082;2022-09-17T16:36:31;98690.41;;;22.18;37.44
16100;BME280;8154;50.830;12.082;2022-09-17T16:39:18;98702.91;;;22.17;37.49
16100;BME280;8154;50.830;12.082;2022-09-17T16:42:03;98697.38;;;22.19;37.43
16100;BME280;8154;50.830;12.082;2022-09-17T16:44:47;98698.81;;;22.21;37.51
16100;BME280;8154;50.830;12.082;2022-09-17T16:47:39;98690.84;;;22.21;37.44
16100;BME280;8154;50.830;12.082;2022-09-17T16:50:25;98687.13;;;22.22;37.60
16100;BME280;8154;50.830;12.082;2022-09-17T16:53:09;98695.13;;;22.22;37.56
16100;BME280;8154;50.830;12.082;2022-09-17T16:55:53;98691.22;;;22.25;37.52
16100;BME280;8154;50.830;12.082;2022-09-17T16:58:38;98701.06;;;22.24;37.59
16100;BME280;8154;50.830;12.082;2022-09-17T17:01:23;98701.06;;;22.24;37.58
16100;BME280;8154;50.830;12.082;2022-09-17T17:04:08;98712.13;;;22.21;37.82
16100;BME280;8154;50.830;12.082;2022-09-17T17:06:58;98715.38;;;22.17;37.98
16100;BME280;8154;50.830;12.082;2022-09-17T17:09:44;98702.69;;;22.12;38.26
16100;BME280;8154;50.830;12.082;2022-09-17T17:12:29;98684.66;;;22.08;38.16
16100;BME280;8154;50.830;12.082;2022-09-17T17:15:14;98680.19;;;22.08;38.14
16100;BME280;8154;50.830;12.082;2022-09-17T17:17:59;98685.50;;;22.08;38.14
16100;BME280;8154;50.830;12.082;2022-09-17T17:20:42;98682.22;;;22.06;38.23
16100;BME280;8154;50.830;12.082;2022-09-17T17:23:26;98676.47;;;22.09;38.08
16100;BME280;8154;50.830;12.082;2022-09-17T17:26:11;98682.22;;;22.06;38.17
16100;BME280;8154;50.830;12.082;2022-09-17T17:28:55;98670.56;;;22.07;37.98
16100;BME280;8154;50.830;12.082;2022-09-17T17:31:40;98680.59;;;22.05;38.01
16100;BME280;8154;50.830;12.082;2022-09-17T17:34:24;98670.97;;;22.04;38.11
16100;BME280;8154;50.830;12.082;2022-09-17T17:37:08;98672.00;;;22.10;38.09
16100;BME280;8154;50.830;12.082;2022-09-17T17:39:53;98672.00;;;22.10;37.92
16100;BME280;8154;50.830;12.082;2022-09-17T17:42:38;98683.06;;;22.13;38.06
16100;BME280;8154;50.830;12.082;2022-09-17T17:45:27;98669.75;;;22.13;37.88
16100;BME280;8154;50.830;12.082;2022-09-17T17:48:11;98677.31;;;22.16;37.95
16100;BME280;8154;50.830;12.082;2022-09-17T17:51:00;98685.31;;;22.16;37.90
16100;BME280;8154;50.830;12.082;2022-09-17T17:53:45;98688.56;;;22.12;38.08
16100;BME280;8154;50.830;12.082;2022-09-17T17:56:30;98690.22;;;22.13;37.99
16100;BME280;8154;50.830;12.082;2022-09-17T17:59:14;98692.66;;;22.14;38.08
16100;BME280;8154;50.830;12.082;2022-09-17T18:01:59;98694.69;;;22.12;38.18
16100;BME280;8154;50.830;12.082;2022-09-17T18:04:43;98698.81;;;22.08;38.18
16100;BME280;8154;50.830;12.082;2022-09-17T18:07:28;98704.13;;;22.08;38.18
16100;BME280;8154;50.830;12.082;2022-09-17T18:10:12;98702.88;;;22.11;37.96
16100;BME280;8154;50.830;12.082;2022-09-17T18:12:56;98702.50;;;22.07;38.20
16100;BME280;8154;50.830;12.082;2022-09-17T18:15:59;98696.16;;;22.08;38.16
16100;BME280;8154;50.830;12.082;2022-09-17T18:18:45;98708.41;;;22.09;38.08
16100;BME280;8154;50.830;12.082;2022-09-17T18:21:29;98704.13;;;22.08;38.11
16100;BME280;8154;50.830;12.082;2022-09-17T18:24:13;98714.16;;;22.06;38.14
16100;BME280;8154;50.830;12.082;2022-09-17T18:26:57;98715.41;;;22.10;38.18
16100;BME280;8154;50.830;12.082;2022-09-17T18:29:42;98733.19;;;22.10;37.82
16100;BME280;8154;50.830;12.082;2022-09-17T18:32:26;98725.00;;;22.11;38.10
16100;BME280;8154;50.830;12.082;2022-09-17T18:35:11;98734.63;;;22.12;38.02
16100;BME280;8154;50.830;12.082;2022-09-17T18:37:58;98749.59;;;22.13;37.95
16100;BME280;8154;50.830;12.082;2022-09-17T18:40:43;98754.47;;;22.10;38.08
16100;BME280;8154;50.830;12.082;2022-09-17T18:43:27;98749.16;;;22.03;38.13
16100;BME280;8154;50.830;12.082;2022-09-17T18:46:12;98749.78;;;22.05;38.13